Terminal Aerodrome Forecast
Issued by NWS Indianapolis, IN

Home | Current Version | Previous Version | Text Only | Print | Product List | Glossary On
Versions: 1 2 3 4 5 6 7 8 9 10 11 12 13 14 15 16 17 18 19 20 21 22 23 24 25 26 27 28 29 30 31 32
000
FTUS43 KIND 211700
TAFIND
TAF
KIND 211720Z 2118/2224 34011KT P6SM VCSH BKN025
     FM212000 34011KT P6SM BKN040
     FM212300 02007KT P6SM BKN040
     FM220400 03006KT P6SM SKC
     FM221600 03006KT P6SM SCT040=

USA.gov is the U.S. government's official web portal to all federal, state and local government web resources and services.